Time;durP1;ratioP1;P1;durP2;ratioP2;P2;SDS_P1;SDS_P2;PMS_P1;PMS_P2;Temp;Humidity;BMP_temperature;BMP_pressure;BME280_temperature;BME280_humidity;BME280_pressure;Samples;Min_cycle;Max_cycle;Signal;HPM_P1;HPM_P2
2023/07/16 00:03:04;;;;;;;7.20;4.35;;;;;;;;;;6248217;23;20648;-90
2023/07/16 00:06:10;;;;;;;11.05;4.97;;;;;;;;;;6247859;23;20150;-90
2023/07/16 00:09:16;;;;;;;10.95;5.20;;;;;;;;;;6250946;22;20268;-90
2023/07/16 00:12:21;;;;;;;6.22;4.40;;;;;;;;;;6246481;22;20166;-91
2023/07/16 00:15:26;;;;;;;7.10;4.68;;;;;;;;;;6247865;22;20213;-90
2023/07/16 00:18:32;;;;;;;10.15;4.47;;;;;;;;;;6247046;22;20232;-90
2023/07/16 00:21:49;;;;;;;6.38;4.45;;;;;;;;;;6246195;22;20155;-90
2023/07/16 00:24:56;;;;;;;7.88;4.50;;;;;;;;;;6249033;22;20163;-90
2023/07/16 00:28:01;;;;;;;9.38;4.85;;;;;;;;;;6245052;22;20262;-91
2023/07/16 00:31:07;;;;;;;7.55;4.93;;;;;;;;;;6247342;22;20684;-91
2023/07/16 00:34:13;;;;;;;7.43;4.10;;;;;;;;;;6243496;23;20166;-90
2023/07/16 00:37:19;;;;;;;13.13;4.80;;;;;;;;;;6244033;22;20666;-90
2023/07/16 00:40:25;;;;;;;8.52;4.40;;;;;;;;;;6242486;23;20171;-89
2023/07/16 00:43:30;;;;;;;11.15;5.53;;;;;;;;;;6242696;23;20538;-90
2023/07/16 00:46:35;;;;;;;7.28;4.30;;;;;;;;;;6240437;23;20162;-91
2023/07/16 00:49:41;;;;;;;7.88;4.72;;;;;;;;;;6242245;23;20190;-90
2023/07/16 00:52:46;;;;;;;10.65;4.63;;;;;;;;;;6241393;23;20167;-90
2023/07/16 00:55:53;;;;;;;10.05;4.55;;;;;;;;;;6241102;23;20614;-90
2023/07/16 00:58:58;;;;;;;7.90;4.30;;;;;;;;;;6240989;23;20243;-89
2023/07/16 01:02:03;;;;;;;11.25;4.55;;;;;;;;;;6240335;22;20175;-90
2023/07/16 01:05:08;;;;;;;8.40;4.40;;;;;;;;;;6240391;23;20240;-89
2023/07/16 01:08:14;;;;;;;8.05;4.10;;;;;;;;;;6241064;23;20237;-89
2023/07/16 01:11:21;;;;;;;5.93;4.30;;;;;;;;;;6238370;23;20171;-89
2023/07/16 01:14:26;;;;;;;8.65;4.25;;;;;;;;;;6240311;22;20211;-89
2023/07/16 01:17:32;;;;;;;6.18;4.03;;;;;;;;;;6238658;23;20241;-89
2023/07/16 01:20:37;;;;;;;8.60;4.38;;;;;;;;;;6238840;23;20496;-89
2023/07/16 01:23:59;;;;;;;9.80;4.32;;;;;;;;;;6238752;23;20223;-89
2023/07/16 01:27:19;;;;;;;7.53;4.15;;;;;;;;;;6239164;23;20171;-89
2023/07/16 01:30:27;;;;;;;6.10;4.25;;;;;;;;;;6238129;23;20224;-88
2023/07/16 01:33:33;;;;;;;11.18;4.20;;;;;;;;;;6239182;23;20158;-88
2023/07/16 01:36:42;;;;;;;7.47;3.90;;;;;;;;;;6238275;23;20234;-88
2023/07/16 01:39:48;;;;;;;6.53;3.70;;;;;;;;;;6236643;22;20239;-88
2023/07/16 01:42:54;;;;;;;9.60;3.30;;;;;;;;;;6237785;23;20162;-88
2023/07/16 01:46:00;;;;;;;10.05;3.40;;;;;;;;;;6237747;22;20166;-89
2023/07/16 01:49:05;;;;;;;15.23;3.58;;;;;;;;;;6237241;23;20190;-89
2023/07/16 01:52:11;;;;;;;9.15;3.30;;;;;;;;;;6242942;23;20166;-89
2023/07/16 01:55:16;;;;;;;9.48;3.40;;;;;;;;;;6237562;23;20166;-90
2023/07/16 01:58:21;;;;;;;11.30;3.60;;;;;;;;;;6237677;22;20252;-89
2023/07/16 02:01:29;;;;;;;7.55;4.00;;;;;;;;;;6237746;23;20637;-90
2023/07/16 02:04:34;;;;;;;6.15;3.25;;;;;;;;;;6239330;23;20316;-91
2023/07/16 02:07:39;;;;;;;14.35;3.70;;;;;;;;;;6243877;23;20182;-91
2023/07/16 02:10:45;;;;;;;10.50;3.40;;;;;;;;;;6238481;23;20220;-89
2023/07/16 02:13:51;;;;;;;7.70;3.40;;;;;;;;;;6238566;23;20614;-91
2023/07/16 02:16:57;;;;;;;6.88;3.58;;;;;;;;;;6238970;23;20173;-89
2023/07/16 02:20:05;;;;;;;11.88;4.15;;;;;;;;;;6237985;23;20170;-90
2023/07/16 02:23:37;;;;;;;12.77;3.40;;;;;;;;;;6237492;23;20163;-89
2023/07/16 02:26:42;;;;;;;7.78;3.20;;;;;;;;;;6238539;23;20166;-90
2023/07/16 02:29:50;;;;;;;10.55;3.10;;;;;;;;;;6238429;23;20221;-89
2023/07/16 02:32:57;;;;;;;8.25;3.33;;;;;;;;;;6235710;23;20233;-90
2023/07/16 02:36:03;;;;;;;7.47;2.75;;;;;;;;;;6234563;23;20174;-89
2023/07/16 02:39:08;;;;;;;7.20;3.40;;;;;;;;;;6237555;23;20165;-89
2023/07/16 02:42:13;;;;;;;12.95;3.80;;;;;;;;;;6237686;23;20170;-89
2023/07/16 02:45:19;;;;;;;5.20;3.30;;;;;;;;;;6236737;23;20216;-88
2023/07/16 02:48:25;;;;;;;6.40;3.03;;;;;;;;;;6235107;22;20236;-89
2023/07/16 02:51:31;;;;;;;7.88;2.55;;;;;;;;;;6237727;23;20171;-89
2023/07/16 02:54:36;;;;;;;9.93;3.53;;;;;;;;;;6237681;22;20167;-88
2023/07/16 02:57:41;;;;;;;10.05;2.78;;;;;;;;;;6240578;23;20169;-89
2023/07/16 03:00:46;;;;;;;5.30;2.47;;;;;;;;;;6239923;23;20169;-89
2023/07/16 03:03:52;;;;;;;8.98;3.20;;;;;;;;;;6245315;23;20197;-90
2023/07/16 03:06:58;;;;;;;6.32;2.53;;;;;;;;;;6239465;23;20198;-89
2023/07/16 03:10:02;;;;;;;4.40;2.53;;;;;;;;;;6239577;23;20182;-89
2023/07/16 03:13:08;;;;;;;9.10;2.92;;;;;;;;;;6245326;23;20190;-89
2023/07/16 03:16:13;;;;;;;4.80;2.45;;;;;;;;;;6239933;23;20166;-90
2023/07/16 03:19:20;;;;;;;6.35;2.30;;;;;;;;;;6240318;23;20174;-90
2023/07/16 03:22:30;;;;;;;5.32;2.20;;;;;;;;;;6238744;23;20245;-90
2023/07/16 03:25:35;;;;;;;3.45;2.20;;;;;;;;;;6238706;23;20171;-91
2023/07/16 03:28:41;;;;;;;6.22;2.50;;;;;;;;;;6241263;23;20166;-90
2023/07/16 03:31:49;;;;;;;4.28;2.08;;;;;;;;;;6240132;23;20477;-89
2023/07/16 03:34:58;;;;;;;8.35;2.83;;;;;;;;;;6241501;22;20147;-90
2023/07/16 03:38:10;;;;;;;6.30;3.20;;;;;;;;;;6243140;22;20166;-90
2023/07/16 03:41:14;;;;;;;5.93;2.53;;;;;;;;;;6240610;23;20167;-88
2023/07/16 03:44:20;;;;;;;6.78;2.60;;;;;;;;;;6241946;23;20239;-90
2023/07/16 03:47:25;;;;;;;6.38;2.30;;;;;;;;;;6240933;22;20157;-88
2023/07/16 03:50:32;;;;;;;4.85;2.60;;;;;;;;;;6241471;23;20237;-89
2023/07/16 03:53:38;;;;;;;6.55;2.65;;;;;;;;;;6240989;23;20205;-90
2023/07/16 05:48:14;;;;;;;4.80;2.47;;;;;;;;;;6242288;22;20207;-90
2023/07/16 05:51:23;;;;;;;7.47;2.72;;;;;;;;;;6246193;23;20197;-88
2023/07/16 05:54:28;;;;;;;6.07;2.78;;;;;;;;;;6244195;23;20146;-90
2023/07/16 05:57:38;;;;;;;8.27;2.60;;;;;;;;;;6243679;23;20271;-89
2023/07/16 06:00:43;;;;;;;8.23;2.58;;;;;;;;;;6243587;23;20162;-89
2023/07/16 06:03:49;;;;;;;4.65;2.90;;;;;;;;;;6242422;23;20170;-89
2023/07/16 06:06:55;;;;;;;5.82;2.53;;;;;;;;;;6241936;23;20151;-89
2023/07/16 06:10:00;;;;;;;5.63;2.88;;;;;;;;;;6243576;23;20181;-89
2023/07/16 06:13:06;;;;;;;4.53;2.55;;;;;;;;;;6243313;23;20609;-90
2023/07/16 06:16:11;;;;;;;4.85;2.50;;;;;;;;;;6241197;23;20274;-88
2023/07/16 06:19:18;;;;;;;5.50;2.80;;;;;;;;;;6242457;23;20174;-89
2023/07/16 06:22:59;;;;;;;4.55;2.50;;;;;;;;;;6242764;23;20169;-90
2023/07/16 06:26:05;;;;;;;3.35;2.00;;;;;;;;;;6245299;22;20527;-90
2023/07/16 06:29:10;;;;;;;3.85;2.40;;;;;;;;;;6242122;23;20496;-89
2023/07/16 06:32:15;;;;;;;7.60;2.58;;;;;;;;;;6241495;23;20205;-90
2023/07/16 06:35:23;;;;;;;3.70;2.30;;;;;;;;;;6240651;22;20155;-88
2023/07/16 06:38:30;;;;;;;6.78;2.72;;;;;;;;;;6244719;23;20234;-88
2023/07/16 06:41:35;;;;;;;3.95;2.67;;;;;;;;;;6242496;23;20218;-91
2023/07/16 06:44:40;;;;;;;3.20;2.30;;;;;;;;;;6243380;23;20182;-90
2023/07/16 06:47:46;;;;;;;3.17;2.40;;;;;;;;;;6241839;22;20522;-91
2023/07/16 06:50:53;;;;;;;6.00;2.72;;;;;;;;;;6243283;23;20202;-90
2023/07/16 06:53:58;;;;;;;9.98;2.63;;;;;;;;;;6241795;23;20174;-90
2023/07/16 06:57:03;;;;;;;5.63;2.42;;;;;;;;;;6242860;22;20155;-90
2023/07/16 07:00:11;;;;;;;5.35;2.33;;;;;;;;;;6241571;23;20174;-90
2023/07/16 07:03:16;;;;;;;5.25;2.70;;;;;;;;;;6242863;23;20729;-92
2023/07/16 07:06:23;;;;;;;4.82;2.28;;;;;;;;;;6244664;23;20218;-90
2023/07/16 07:09:29;;;;;;;4.57;2.20;;;;;;;;;;6244812;22;20293;-90
2023/07/16 07:12:37;;;;;;;3.70;2.35;;;;;;;;;;6244209;23;20227;-89
2023/07/16 07:15:43;;;;;;;5.28;2.55;;;;;;;;;;6243958;22;20171;-90
2023/07/16 07:18:48;;;;;;;2.80;2.20;;;;;;;;;;6241544;23;20165;-89
2023/07/16 07:21:55;;;;;;;4.70;2.30;;;;;;;;;;6243441;22;20198;-90
2023/07/16 07:25:01;;;;;;;3.78;2.33;;;;;;;;;;6241549;22;20162;-90
2023/07/16 07:28:06;;;;;;;4.10;2.13;;;;;;;;;;6242134;23;20170;-91
2023/07/16 07:31:12;;;;;;;5.40;2.00;;;;;;;;;;6240805;23;20271;-91
2023/07/16 07:34:21;;;;;;;5.38;2.53;;;;;;;;;;6242498;23;20170;-89
2023/07/16 07:37:28;;;;;;;3.70;2.33;;;;;;;;;;6242549;22;20170;-90
2023/07/16 07:40:34;;;;;;;4.95;1.90;;;;;;;;;;6226524;22;20166;-90
2023/07/16 07:43:39;;;;;;;4.20;2.22;;;;;;;;;;6244442;23;20209;-90
2023/07/16 07:46:45;;;;;;;4.53;2.28;;;;;;;;;;6244538;23;20174;-91
2023/07/16 07:49:53;;;;;;;3.17;2.00;;;;;;;;;;6217649;22;20167;-90
2023/07/16 07:52:59;;;;;;;4.72;1.90;;;;;;;;;;6241729;23;20162;-89
2023/07/16 07:56:04;;;;;;;2.92;1.83;;;;;;;;;;6243807;22;20679;-88
2023/07/16 07:59:10;;;;;;;5.70;2.17;;;;;;;;;;6247329;22;20193;-90
2023/07/16 08:02:15;;;;;;;5.57;2.00;;;;;;;;;;6246659;23;20235;-90
2023/07/16 08:05:21;;;;;;;7.88;2.30;;;;;;;;;;6246164;23;20166;-89
2023/07/16 08:08:30;;;;;;;3.17;2.00;;;;;;;;;;6261015;22;20162;-89
2023/07/16 08:11:36;;;;;;;4.00;1.80;;;;;;;;;;6245942;22;20527;-90
2023/07/16 08:14:42;;;;;;;4.05;1.58;;;;;;;;;;6244764;22;20167;-90
2023/07/16 08:17:47;;;;;;;3.30;1.50;;;;;;;;;;6242901;23;20162;-90
2023/07/16 08:20:53;;;;;;;3.20;1.70;;;;;;;;;;6241237;22;20186;-89
2023/07/16 08:23:59;;;;;;;5.22;1.60;;;;;;;;;;6242702;23;20170;-90
2023/07/16 08:27:05;;;;;;;4.30;1.75;;;;;;;;;;6248274;22;20154;-90
2023/07/16 08:30:13;;;;;;;2.65;1.67;;;;;;;;;;6248234;23;20256;-90
2023/07/16 08:33:18;;;;;;;3.88;1.50;;;;;;;;;;6246750;23;20167;-89
2023/07/16 08:36:28;;;;;;;3.15;1.75;;;;;;;;;;6240074;22;20175;-89
2023/07/16 08:39:34;;;;;;;2.92;1.70;;;;;;;;;;6240897;22;20258;-90
2023/07/16 08:42:40;;;;;;;2.10;1.50;;;;;;;;;;6242384;23;20174;-89
2023/07/16 08:45:46;;;;;;;3.78;2.00;;;;;;;;;;6244799;22;20166;-90
2023/07/16 08:48:59;;;;;;;3.58;1.70;;;;;;;;;;6247269;23;20289;-90
2023/07/16 08:52:06;;;;;;;3.85;1.85;;;;;;;;;;6242827;22;20194;-89
2023/07/16 08:55:13;;;;;;;3.25;1.80;;;;;;;;;;6244441;22;20149;-89
2023/07/16 08:58:19;;;;;;;4.30;2.35;;;;;;;;;;6244742;22;20166;-90
2023/07/16 09:01:23;;;;;;;7.55;1.80;;;;;;;;;;6242128;23;20249;-90
2023/07/16 09:04:29;;;;;;;2.38;1.63;;;;;;;;;;6241067;23;20717;-89
2023/07/16 09:07:36;;;;;;;2.65;2.00;;;;;;;;;;6239916;22;20209;-89
2023/07/16 09:10:43;;;;;;;2.30;1.70;;;;;;;;;;6241320;23;20212;-90
2023/07/16 09:13:48;;;;;;;4.20;1.70;;;;;;;;;;6242678;23;20186;-90
2023/07/16 09:16:54;;;;;;;3.58;1.70;;;;;;;;;;6242452;23;20585;-88
2023/07/16 09:20:07;;;;;;;2.65;1.73;;;;;;;;;;6241024;22;20166;-90
2023/07/16 09:23:16;;;;;;;3.83;1.73;;;;;;;;;;6240021;23;20170;-90
2023/07/16 09:26:23;;;;;;;1.75;1.40;;;;;;;;;;6241293;23;20165;-90
2023/07/16 09:29:28;;;;;;;2.90;1.75;;;;;;;;;;6241938;23;20166;-91
2023/07/16 09:33:13;;;;;;;2.72;1.70;;;;;;;;;;6240626;23;20178;-90
2023/07/16 09:36:54;;;;;;;2.65;1.60;;;;;;;;;;6243373;23;20169;-90
2023/07/16 09:39:59;;;;;;;3.08;1.60;;;;;;;;;;6243403;23;20214;-90
2023/07/16 09:43:07;;;;;;;5.43;1.50;;;;;;;;;;6242779;22;20174;-89
2023/07/16 09:46:12;;;;;;;5.20;1.75;;;;;;;;;;6245312;22;20170;-92
2023/07/16 09:49:19;;;;;;;2.75;1.65;;;;;;;;;;6245222;23;20167;-90
2023/07/16 09:52:28;;;;;;;4.72;1.85;;;;;;;;;;6243011;23;20263;-90
2023/07/16 09:55:34;;;;;;;2.67;1.98;;;;;;;;;;6241094;22;20159;-90
2023/07/16 09:58:42;;;;;;;3.08;2.20;;;;;;;;;;6241405;23;20169;-91
2023/07/16 10:01:48;;;;;;;3.90;1.90;;;;;;;;;;6241662;22;20286;-91
2023/07/16 10:04:57;;;;;;;2.78;1.80;;;;;;;;;;6241158;23;20218;-92
2023/07/16 10:08:02;;;;;;;2.67;2.00;;;;;;;;;;6241285;23;20233;-92
2023/07/16 10:11:17;;;;;;;3.13;1.98;;;;;;;;;;6242064;23;20178;-91
2023/07/16 10:14:27;;;;;;;3.15;1.90;;;;;;;;;;6244550;23;20182;-92
2023/07/16 10:17:34;;;;;;;4.40;2.00;;;;;;;;;;6247705;23;20146;-90
2023/07/16 10:20:42;;;;;;;2.08;1.70;;;;;;;;;;6244041;22;20165;-92
2023/07/16 10:23:49;;;;;;;3.55;1.80;;;;;;;;;;6244536;23;20209;-91
2023/07/16 10:26:54;;;;;;;3.20;2.00;;;;;;;;;;6243562;22;20145;-90
2023/07/16 10:30:29;;;;;;;3.15;2.05;;;;;;;;;;6243614;23;20209;-92
2023/07/16 10:33:38;;;;;;;3.17;1.83;;;;;;;;;;6241744;22;20154;-92
2023/07/16 10:41:11;;;;;;;2.83;1.60;;;;;;;;;;6262093;23;20226;-92
2023/07/16 10:44:18;;;;;;;3.92;1.85;;;;;;;;;;6244414;22;20178;-92
2023/07/16 10:47:25;;;;;;;3.95;1.50;;;;;;;;;;6244589;23;20185;-92
2023/07/16 10:50:34;;;;;;;2.15;1.83;;;;;;;;;;6242415;23;20180;-91
2023/07/16 10:53:43;;;;;;;3.33;1.80;;;;;;;;;;6242241;23;20201;-89
2023/07/16 10:56:50;;;;;;;1.73;1.60;;;;;;;;;;6241318;22;20162;-91
2023/07/16 10:59:57;;;;;;;3.13;1.80;;;;;;;;;;6244247;22;20166;-91
2023/07/16 11:03:02;;;;;;;2.53;1.75;;;;;;;;;;6241407;23;20207;-90
2023/07/16 11:06:11;;;;;;;2.40;1.83;;;;;;;;;;6244582;23;20301;-90
2023/07/16 11:09:17;;;;;;;3.15;2.25;;;;;;;;;;6244383;23;20297;-91
2023/07/16 11:12:24;;;;;;;2.25;1.70;;;;;;;;;;6245194;23;20217;-92
2023/07/16 11:15:34;;;;;;;4.57;2.00;;;;;;;;;;6241679;22;20166;-91
2023/07/16 11:18:39;;;;;;;6.82;2.90;;;;;;;;;;6249685;22;20218;-93
2023/07/16 11:22:01;;;;;;;3.70;2.45;;;;;;;;;;6251677;22;20665;-91
2023/07/16 11:25:15;;;;;;;3.85;2.22;;;;;;;;;;6250613;23;20170;-91
2023/07/16 11:28:22;;;;;;;4.32;1.52;;;;;;;;;;6250638;22;20202;-91
2023/07/16 11:31:29;;;;;;;3.05;1.73;;;;;;;;;;6251000;22;20218;-92
2023/07/16 11:34:35;;;;;;;3.08;1.80;;;;;;;;;;6252097;23;20161;-91
2023/07/16 11:37:57;;;;;;;2.10;1.63;;;;;;;;;;6251669;22;20219;-91
2023/07/16 11:41:08;;;;;;;2.58;1.40;;;;;;;;;;6251507;23;20173;-91
2023/07/16 11:44:15;;;;;;;3.90;1.70;;;;;;;;;;6252164;22;20154;-93
2023/07/16 11:47:21;;;;;;;3.40;1.60;;;;;;;;;;6250555;22;20188;-90
2023/07/16 11:50:29;;;;;;;2.38;1.75;;;;;;;;;;6247674;23;20652;-91
2023/07/16 11:53:34;;;;;;;2.72;1.75;;;;;;;;;;6249151;23;20172;-90
2023/07/16 11:56:52;;;;;;;1.98;1.30;;;;;;;;;;6249967;22;20165;-92
2023/07/16 11:59:58;;;;;;;2.28;1.60;;;;;;;;;;6250251;23;20170;-91
2023/07/16 12:03:05;;;;;;;2.40;1.60;;;;;;;;;;6249132;23;20145;-92
2023/07/16 12:09:31;;;;;;;2.67;1.55;;;;;;;;;;6252404;22;20170;-92
2023/07/16 12:12:39;;;;;;;3.55;1.60;;;;;;;;;;6250868;22;20218;-91
2023/07/16 12:15:44;;;;;;;2.63;1.40;;;;;;;;;;6248261;23;20170;-92
2023/07/16 12:18:50;;;;;;;2.42;1.50;;;;;;;;;;6247709;23;20213;-92
2023/07/16 12:21:56;;;;;;;2.10;1.55;;;;;;;;;;6247027;22;20874;-88
2023/07/16 12:25:01;;;;;;;1.73;1.40;;;;;;;;;;6245486;22;20185;-92
2023/07/16 12:28:11;;;;;;;12.48;1.60;;;;;;;;;;6247940;22;20165;-91
2023/07/16 12:31:20;;;;;;;1.88;1.40;;;;;;;;;;6251109;22;20225;-92
2023/07/16 12:34:25;;;;;;;1.75;1.27;;;;;;;;;;6248682;22;20170;-92
2023/07/16 12:37:58;;;;;;;2.40;1.50;;;;;;;;;;6247396;23;20174;-91
2023/07/16 12:41:04;;;;;;;1.73;1.40;;;;;;;;;;6247672;22;20198;-92
2023/07/16 12:44:11;;;;;;;3.20;1.55;;;;;;;;;;6247924;23;20216;-92
2023/07/16 12:47:17;;;;;;;1.58;1.40;;;;;;;;;;6246363;22;20193;-91
2023/07/16 14:50:58;;;;;;;2.53;1.70;;;;;;;;;;6155286;23;20188;-89
2023/07/16 14:54:03;;;;;;;2.55;1.45;;;;;;;;;;6156791;23;20156;-90
2023/07/16 14:57:09;;;;;;;1.90;1.70;;;;;;;;;;6155847;23;20167;-91
2023/07/16 15:00:15;;;;;;;5.05;1.80;;;;;;;;;;6154163;23;20219;-92
2023/07/16 15:03:23;;;;;;;1.63;1.50;;;;;;;;;;6157295;23;20200;-89
2023/07/16 15:06:32;;;;;;;2.15;1.73;;;;;;;;;;6157542;23;20219;-90
2023/07/16 15:09:39;;;;;;;3.97;1.80;;;;;;;;;;6156108;23;20155;-91
2023/07/16 15:12:45;;;;;;;3.15;1.65;;;;;;;;;;6154898;23;20175;-91
2023/07/16 15:15:51;;;;;;;4.63;1.80;;;;;;;;;;6153224;23;20172;-90
2023/07/16 15:18:56;;;;;;;4.13;1.88;;;;;;;;;;6155762;23;20217;-89
2023/07/16 15:22:09;;;;;;;3.38;1.63;;;;;;;;;;6153659;23;20323;-91
2023/07/16 17:28:28;;;;;;;4.45;2.13;;;;;;;;;;6245043;22;20218;-91
2023/07/16 17:31:34;;;;;;;5.03;1.88;;;;;;;;;;6247727;22;20313;-89
2023/07/16 17:34:41;;;;;;;4.93;1.90;;;;;;;;;;6246557;23;20167;-90
2023/07/16 18:26:11;;;;;;;8.32;2.03;;;;;;;;;;6263821;22;20155;-90
2023/07/16 18:29:16;;;;;;;3.10;1.83;;;;;;;;;;6243902;23;20182;-88
2023/07/16 18:32:48;;;;;;;4.43;2.20;;;;;;;;;;6243741;23;20170;-91
2023/07/16 18:35:55;;;;;;;4.07;2.20;;;;;;;;;;6244104;23;20166;-89
2023/07/16 18:39:00;;;;;;;6.78;2.58;;;;;;;;;;6227078;23;20165;-90
2023/07/16 18:42:09;;;;;;;5.60;2.17;;;;;;;;;;6245166;23;20174;-89
2023/07/16 18:45:18;;;;;;;5.78;2.05;;;;;;;;;;6242060;23;20249;-89
2023/07/16 18:48:24;;;;;;;2.70;2.10;;;;;;;;;;6244152;22;20170;-90
2023/07/16 18:51:30;;;;;;;5.68;2.38;;;;;;;;;;6243516;23;20193;-89
2023/07/16 18:54:35;;;;;;;12.70;7.05;;;;;;;;;;6244818;23;20205;-89
2023/07/16 18:57:43;;;;;;;5.32;2.30;;;;;;;;;;6243766;23;20239;-90
2023/07/16 19:00:49;;;;;;;9.30;2.70;;;;;;;;;;6243827;23;20167;-89
2023/07/16 19:04:01;;;;;;;3.45;1.90;;;;;;;;;;6251397;22;20181;-90
2023/07/16 19:07:07;;;;;;;6.68;2.30;;;;;;;;;;6249483;22;20155;-89
2023/07/16 19:10:13;;;;;;;4.35;2.20;;;;;;;;;;6244354;23;20167;-90
2023/07/16 19:13:20;;;;;;;3.85;2.50;;;;;;;;;;6247422;23;20166;-90
2023/07/16 19:16:25;;;;;;;5.53;2.40;;;;;;;;;;6246510;22;20171;-90
2023/07/16 19:19:31;;;;;;;3.67;2.58;;;;;;;;;;6243950;23;20213;-90
2023/07/16 19:22:39;;;;;;;4.40;2.38;;;;;;;;;;6245819;23;20209;-90
2023/07/16 19:25:46;;;;;;;4.85;2.20;;;;;;;;;;6243935;23;20150;-88
2023/07/16 19:28:54;;;;;;;5.97;2.25;;;;;;;;;;6245345;23;20617;-90
2023/07/16 19:32:34;;;;;;;5.10;2.85;;;;;;;;;;6247362;23;20171;-90
2023/07/16 19:39:02;;;;;;;5.25;2.30;;;;;;;;;;6246081;23;20760;-89
2023/07/16 19:42:09;;;;;;;7.10;2.92;;;;;;;;;;6248449;23;20260;-92
2023/07/16 19:45:17;;;;;;;5.85;2.30;;;;;;;;;;6246968;23;20146;-90
2023/07/16 19:48:23;;;;;;;4.75;2.47;;;;;;;;;;6247003;22;20162;-89
2023/07/16 19:51:31;;;;;;;7.15;2.40;;;;;;;;;;6250803;23;20231;-92
2023/07/16 19:54:37;;;;;;;5.78;2.90;;;;;;;;;;6247306;23;20159;-91
2023/07/16 19:57:48;;;;;;;5.03;2.47;;;;;;;;;;6249514;22;20174;-91
2023/07/16 20:00:56;;;;;;;5.20;2.05;;;;;;;;;;6248148;22;20179;-91
2023/07/16 20:04:04;;;;;;;4.07;2.70;;;;;;;;;;6265430;22;20265;-91
2023/07/16 20:07:11;;;;;;;3.45;2.00;;;;;;;;;;6244307;22;20169;-89
2023/07/16 20:10:21;;;;;;;7.53;3.28;;;;;;;;;;6245978;22;20233;-90
2023/07/16 20:13:28;;;;;;;5.90;2.30;;;;;;;;;;6249729;22;20167;-90
2023/07/16 20:16:39;;;;;;;10.57;2.83;;;;;;;;;;6246206;22;20162;-89
2023/07/16 20:19:45;;;;;;;8.75;2.70;;;;;;;;;;6248656;22;20222;-90
2023/07/16 20:23:13;;;;;;;5.20;2.58;;;;;;;;;;6245710;22;20325;-90
2023/07/16 20:26:18;;;;;;;4.63;2.63;;;;;;;;;;6243970;22;20170;-90
2023/07/16 20:29:24;;;;;;;4.45;2.50;;;;;;;;;;6247339;23;20162;-91
2023/07/16 20:37:14;;;;;;;3.92;2.53;;;;;;;;;;6268442;22;20150;-93
2023/07/16 20:40:24;;;;;;;6.85;2.55;;;;;;;;;;6250515;22;20146;-92
2023/07/16 20:43:33;;;;;;;5.13;2.40;;;;;;;;;;6245949;22;20186;-93
2023/07/16 20:46:38;;;;;;;5.20;2.40;;;;;;;;;;6248262;23;20210;-91
2023/07/16 20:49:44;;;;;;;5.90;2.17;;;;;;;;;;6248092;23;20204;-91
2023/07/16 20:56:16;;;;;;;4.90;2.63;;;;;;;;;;6247566;23;20190;-93
2023/07/16 20:59:22;;;;;;;6.75;2.33;;;;;;;;;;6248745;22;20230;-91
2023/07/16 22:27:35;;;;;;;9.05;3.83;;;;;;;;;;6214157;22;20262;-90
2023/07/16 22:30:41;;;;;;;7.03;3.42;;;;;;;;;;6247295;22;20182;-91
2023/07/16 22:33:46;;;;;;;6.88;3.88;;;;;;;;;;6248862;22;20167;-91
2023/07/16 22:36:53;;;;;;;11.15;3.97;;;;;;;;;;6246023;22;20218;-91
2023/07/16 22:39:58;;;;;;;10.07;3.80;;;;;;;;;;6245557;22;20217;-94
2023/07/16 22:43:05;;;;;;;6.68;3.90;;;;;;;;;;6246356;23;20205;-94
2023/07/16 22:46:10;;;;;;;7.82;4.05;;;;;;;;;;6244838;23;20163;-93
2023/07/16 22:49:15;;;;;;;8.85;4.00;;;;;;;;;;6245123;22;20263;-94
2023/07/16 22:52:20;;;;;;;10.82;3.95;;;;;;;;;;6245374;22;20170;-93
2023/07/16 23:24:47;;;;;;;6.85;4.25;;;;;;;;;;6216163;22;20202;-93
2023/07/16 23:27:53;;;;;;;10.35;4.10;;;;;;;;;;6247132;23;20193;-91
2023/07/16 23:34:37;;;;;;;12.98;4.32;;;;;;;;;;6247294;22;20194;-93
2023/07/16 23:37:45;;;;;;;7.70;4.32;;;;;;;;;;6246293;22;20199;-94
2023/07/16 23:40:54;;;;;;;10.90;4.57;;;;;;;;;;6248162;22;20163;-89
2023/07/16 23:43:59;;;;;;;12.50;4.32;;;;;;;;;;6245807;22;20195;-92
2023/07/16 23:47:05;;;;;;;8.52;4.57;;;;;;;;;;6247050;22;20163;-94
2023/07/16 23:50:11;;;;;;;10.13;5.00;;;;;;;;;;6247423;22;20215;-91
2023/07/16 23:53:16;;;;;;;8.48;4.70;;;;;;;;;;6247626;22;20167;-93
2023/07/16 23:56:24;;;;;;;7.88;4.68;;;;;;;;;;6251272;22;20217;-93
2023/07/16 23:59:30;;;;;;;6.22;4.13;;;;;;;;;;6247353;23;20170;-94
